Time;durP1;ratioP1;P1;durP2;ratioP2;P2;SDS_P1;SDS_P2;PMS_P1;PMS_P2;Temp;Humidity;BMP_temperature;BMP_pressure;BME280_temperature;BME280_humidity;BME280_pressure;Samples;Min_cycle;Max_cycle;Signal;HPM_P1;HPM_P2
2021/07/14 00:00:50;;;;;;;11.90;8.33;;;;;;;22.16;98.91;94606.00;10566076;28;20304;-77
2021/07/14 00:05:51;;;;;;;10.63;7.23;;;;;;;22.18;98.14;94608.41;10514384;28;20036;-78
2021/07/14 00:10:51;;;;;;;9.90;7.33;;;;;;;22.20;98.69;94600.63;10517919;28;20034;-77
2021/07/14 00:26:18;;;;;;;10.13;7.65;;;;;;;22.11;96.98;94613.69;10567435;28;20832;-78
2021/07/14 00:31:18;;;;;;;12.77;7.70;;;;;;;22.10;96.85;94618.34;10556727;28;20039;-79
2021/07/14 00:36:19;;;;;;;11.18;7.82;;;;;;;22.06;97.42;94603.00;10590772;27;20035;-78
2021/07/14 00:41:19;;;;;;;13.83;7.83;;;;;;;21.94;98.44;94610.13;10600938;27;20023;-78
2021/07/14 00:46:28;;;;;;;14.07;7.20;;;;;;;21.94;99.62;94615.59;10576009;28;20032;-78
2021/07/14 00:51:31;;;;;;;12.52;8.35;;;;;;;21.88;100.00;94616.19;10586725;27;20179;-78
2021/07/14 00:56:31;;;;;;;11.05;8.35;;;;;;;21.76;100.00;94615.09;10584271;27;20121;-77
2021/07/14 01:01:32;;;;;;;11.13;7.82;;;;;;;21.74;100.00;94622.03;10552719;28;20019;-77
2021/07/14 01:06:46;;;;;;;12.25;7.50;;;;;;;21.72;100.00;94611.44;10572949;28;20550;-78
2021/07/14 01:11:48;;;;;;;10.18;8.13;;;;;;;21.57;100.00;94614.91;10573216;28;20032;-78
2021/07/14 01:17:01;;;;;;;15.43;8.27;;;;;;;21.60;100.00;94612.31;10573084;28;20088;-78
2021/07/14 01:22:12;;;;;;;11.45;7.78;;;;;;;21.70;100.00;94621.16;10572941;28;20433;-78
2021/07/14 01:27:15;;;;;;;11.45;8.07;;;;;;;21.77;100.00;94621.34;10572456;28;20043;-78
2021/07/14 01:32:18;;;;;;;10.95;8.10;;;;;;;21.74;100.00;94616.56;10573029;28;20042;-78
2021/07/14 01:37:22;;;;;;;13.68;9.38;;;;;;;21.72;100.00;94627.88;10571681;28;20459;-78
2021/07/14 01:42:25;;;;;;;11.40;8.90;;;;;;;21.73;100.00;94625.94;10572548;28;20031;-78
2021/07/14 01:47:26;;;;;;;14.02;9.50;;;;;;;21.66;100.00;94624.56;10582527;28;20035;-78
2021/07/14 01:52:28;;;;;;;11.07;8.65;;;;;;;21.67;100.00;94628.09;10605190;28;20099;-78
2021/07/14 01:57:33;;;;;;;15.77;8.63;;;;;;;21.63;100.00;94622.53;10617010;28;20382;-78
2021/07/14 02:02:37;;;;;;;12.70;8.25;;;;;;;21.57;100.00;94621.19;10616588;27;20060;-78
2021/07/14 02:07:37;;;;;;;11.18;8.20;;;;;;;21.36;100.00;94618.56;10611818;27;20146;-78
2021/07/14 02:12:39;;;;;;;11.70;8.60;;;;;;;21.24;100.00;94616.69;10597693;27;20190;-79
2021/07/14 02:17:56;;;;;;;14.52;7.68;;;;;;;21.22;100.00;94623.63;10622101;27;20344;-78
2021/07/14 02:22:56;;;;;;;12.85;8.57;;;;;;;21.29;100.00;94634.78;10619728;27;20043;-78
2021/07/14 02:27:56;;;;;;;18.00;9.43;;;;;;;21.11;100.00;94631.47;10621619;27;20162;-78
2021/07/14 02:32:59;;;;;;;12.77;8.73;;;;;;;21.03;100.00;94654.25;10602721;27;20118;-78
2021/07/14 02:38:14;;;;;;;13.65;8.73;;;;;;;21.14;100.00;94653.47;10621206;27;20031;-78
2021/07/14 02:43:16;;;;;;;17.95;9.75;;;;;;;21.03;100.00;94657.00;10620041;27;20101;-78
2021/07/14 02:48:19;;;;;;;12.57;10.40;;;;;;;21.04;100.00;94662.09;10618972;27;20027;-78
2021/07/14 02:53:45;;;;;;;14.38;10.30;;;;;;;21.06;100.00;94670.00;10616379;27;20031;-78
2021/07/14 02:58:50;;;;;;;12.23;9.57;;;;;;;20.92;100.00;94684.78;10616687;27;20031;-78
2021/07/14 03:03:52;;;;;;;15.48;11.20;;;;;;;20.80;100.00;94685.53;10618772;27;20031;-78
2021/07/14 03:09:02;;;;;;;22.48;13.25;;;;;;;20.69;100.00;94683.59;10620263;27;20038;-79
2021/07/14 03:14:05;;;;;;;21.15;15.80;;;;;;;20.67;100.00;94681.19;10622223;27;20035;-80
2021/07/14 03:19:07;;;;;;;16.67;11.32;;;;;;;20.75;100.00;94685.78;10602739;27;20116;-78
2021/07/14 03:24:08;;;;;;;17.33;11.65;;;;;;;20.63;100.00;94678.31;10600610;27;20425;-78
2021/07/14 03:29:11;;;;;;;15.57;10.73;;;;;;;20.66;100.00;94680.38;10619656;27;20028;-78
2021/07/14 03:34:11;;;;;;;16.77;10.63;;;;;;;20.71;100.00;94681.31;10620218;27;20031;-78
2021/07/14 03:39:12;;;;;;;26.15;12.00;;;;;;;20.80;100.00;94676.56;10619330;27;20478;-78
2021/07/14 03:44:15;;;;;;;14.65;10.63;;;;;;;20.89;100.00;94673.72;10618608;27;20035;-79
2021/07/14 03:49:15;;;;;;;15.57;10.27;;;;;;;20.92;100.00;94675.78;10599712;27;20046;-77
2021/07/14 03:54:18;;;;;;;15.07;10.45;;;;;;;20.99;100.00;94685.00;10604074;27;20023;-78
2021/07/14 03:59:19;;;;;;;13.77;10.82;;;;;;;20.95;100.00;94696.97;10546246;28;20031;-77
2021/07/14 04:04:20;;;;;;;15.52;11.07;;;;;;;20.80;100.00;94695.69;10580853;27;20462;-78
2021/07/14 04:09:24;;;;;;;16.35;12.38;;;;;;;20.86;100.00;94704.47;10536531;27;20050;-75
2021/07/14 04:14:26;;;;;;;23.77;14.50;;;;;;;20.87;100.00;94704.13;10557937;28;20025;-76
2021/07/14 04:19:27;;;;;;;15.85;11.55;;;;;;;20.89;100.00;94701.84;10581458;27;20050;-77
2021/07/14 04:24:27;;;;;;;20.42;11.60;;;;;;;21.05;100.00;94698.44;10597756;27;20118;-78
2021/07/14 04:29:28;;;;;;;19.30;11.67;;;;;;;21.38;100.00;94702.97;10576644;27;20081;-78
2021/07/14 04:34:28;;;;;;;15.85;10.75;;;;;;;21.72;100.00;94701.72;10589232;27;20034;-78
2021/07/14 04:39:30;;;;;;;14.68;11.30;;;;;;;22.23;100.00;94709.44;10572063;27;20016;-78
2021/07/14 04:44:38;;;;;;;17.20;12.07;;;;;;;22.68;100.00;94699.31;10576076;27;20740;-77
2021/07/14 04:49:38;;;;;;;14.10;10.70;;;;;;;22.59;100.00;94715.94;10567388;28;20503;-77
2021/07/14 04:54:39;;;;;;;14.63;11.47;;;;;;;22.87;100.00;94715.88;10583786;27;20168;-77
2021/07/14 04:59:39;;;;;;;15.48;10.93;;;;;;;23.04;100.00;94731.16;10583217;27;20019;-77
2021/07/14 05:04:40;;;;;;;16.00;10.80;;;;;;;23.27;100.00;94736.06;10570592;28;20406;-78
2021/07/14 05:09:40;;;;;;;18.87;12.23;;;;;;;23.64;100.00;94737.69;10571796;27;20497;-77
2021/07/14 05:14:40;;;;;;;15.90;11.50;;;;;;;24.00;100.00;94741.25;10568294;27;20023;-77
2021/07/14 05:19:41;;;;;;;17.63;10.97;;;;;;;24.67;100.00;94740.28;10614335;27;20019;-77
2021/07/14 05:24:42;;;;;;;15.30;10.73;;;;;;;25.36;96.39;94726.59;10613946;27;20487;-77
2021/07/14 05:29:42;;;;;;;13.18;9.55;;;;;;;25.38;92.82;94735.28;10613683;27;20114;-77
2021/07/14 05:34:43;;;;;;;14.27;10.50;;;;;;;25.64;92.62;94735.69;10613359;27;20118;-77
2021/07/14 05:39:43;;;;;;;14.85;10.02;;;;;;;26.59;84.81;94726.31;10613852;27;20019;-77
2021/07/14 05:44:44;;;;;;;16.37;9.53;;;;;;;26.86;80.57;94736.47;10611928;27;20026;-77
2021/07/14 05:49:44;;;;;;;18.45;10.05;;;;;;;27.47;77.47;94728.78;10593060;28;20024;-77
2021/07/14 05:54:45;;;;;;;13.77;8.53;;;;;;;28.45;71.55;94733.75;10611943;28;20027;-77
2021/07/14 05:59:45;;;;;;;12.17;8.67;;;;;;;29.34;66.09;94745.47;10613357;27;20451;-77
2021/07/14 06:04:45;;;;;;;15.37;9.47;;;;;;;29.11;63.33;94730.00;10611850;28;20023;-77
2021/07/14 06:09:46;;;;;;;13.03;9.17;;;;;;;30.03;58.29;94735.16;10611458;27;20110;-77
2021/07/14 06:14:49;;;;;;;12.73;8.80;;;;;;;30.44;57.96;94740.19;10611921;27;20027;-77
2021/07/14 06:19:49;;;;;;;17.38;8.07;;;;;;;31.18;53.24;94734.69;10611846;28;20027;-77
2021/07/14 06:24:49;;;;;;;19.37;7.10;;;;;;;31.77;49.03;94733.06;10610757;28;20039;-77
2021/07/14 06:29:50;;;;;;;19.03;6.97;;;;;;;31.96;47.40;94739.25;10610811;28;20071;-77
2021/07/14 06:34:50;;;;;;;18.10;8.00;;;;;;;32.36;47.68;94734.88;10609169;27;20027;-77
2021/07/14 06:39:51;;;;;;;17.77;7.07;;;;;;;33.15;46.27;94735.88;10608662;28;20055;-77
2021/07/14 06:44:51;;;;;;;11.13;6.70;;;;;;;34.27;43.41;94733.28;10610645;28;20027;-77
2021/07/14 06:49:52;;;;;;;11.70;6.63;;;;;;;34.42;44.18;94720.66;10611246;28;20023;-77
2021/07/14 06:54:52;;;;;;;13.67;6.77;;;;;;;35.14;40.80;94723.94;10611003;27;20269;-77
2021/07/14 06:59:52;;;;;;;14.43;7.07;;;;;;;35.25;39.92;94725.28;10618230;27;20321;-77
2021/07/14 07:04:53;;;;;;;13.40;7.47;;;;;;;36.66;37.72;94709.72;10618103;27;20268;-77
2021/07/14 07:09:53;;;;;;;8.35;6.05;;;;;;;36.77;36.47;94705.41;10617387;27;20395;-77
2021/07/14 07:14:54;;;;;;;13.23;5.43;;;;;;;37.20;35.51;94708.91;10617888;27;20045;-77
2021/07/14 07:19:55;;;;;;;11.90;5.72;;;;;;;37.19;34.38;94707.38;10617587;27;20279;-77
2021/07/14 07:24:59;;;;;;;9.85;5.60;;;;;;;37.36;34.23;94701.69;10617469;27;20062;-77
2021/07/14 07:29:59;;;;;;;10.43;5.80;;;;;;;37.71;34.07;94690.53;10617271;27;20026;-77
2021/07/14 07:35:00;;;;;;;7.60;5.70;;;;;;;37.99;33.38;94696.41;10616817;27;20477;-77
2021/07/14 07:40:00;;;;;;;9.00;5.72;;;;;;;38.65;32.60;94685.22;10616989;27;20034;-77
2021/07/14 07:45:01;;;;;;;6.90;5.30;;;;;;;38.77;31.60;94692.03;10616161;27;20046;-77
2021/07/14 07:50:03;;;;;;;8.07;4.95;;;;;;;39.33;31.13;94689.53;10616317;27;20131;-77
2021/07/14 07:55:06;;;;;;;13.85;4.57;;;;;;;39.91;29.34;94671.03;10615712;27;20413;-78
2021/07/14 08:00:11;;;;;;;8.40;4.82;;;;;;;39.01;31.30;94681.06;10628661;27;20038;-78
2021/07/14 08:05:12;;;;;;;10.13;4.97;;;;;;;39.29;30.04;94670.75;10611485;27;20031;-77
2021/07/14 08:10:13;;;;;;;7.28;4.60;;;;;;;40.20;29.14;94676.25;10628740;27;20031;-77
2021/07/14 08:15:13;;;;;;;5.40;4.68;;;;;;;40.20;27.94;94678.28;10615791;27;20027;-77
2021/07/14 08:20:14;;;;;;;7.80;4.72;;;;;;;40.50;27.83;94668.13;10617141;27;20031;-77
2021/07/14 08:25:15;;;;;;;10.55;5.20;;;;;;;40.59;29.53;94661.69;10632368;27;20047;-77
2021/07/14 08:30:16;;;;;;;7.67;5.13;;;;;;;40.51;29.15;94652.78;10615814;27;20090;-77
2021/07/14 08:35:17;;;;;;;6.65;4.30;;;;;;;40.38;27.92;94652.91;10615717;27;20704;-78
2021/07/14 08:40:18;;;;;;;10.68;4.95;;;;;;;41.81;26.77;94663.56;10614993;27;20023;-78
2021/07/14 08:45:20;;;;;;;5.65;4.50;;;;;;;41.82;27.11;94651.00;10615054;27;20407;-78
2021/07/14 08:50:21;;;;;;;7.80;4.72;;;;;;;41.50;26.62;94656.19;10617209;27;20039;-78
2021/07/14 08:55:23;;;;;;;6.25;4.57;;;;;;;41.24;27.44;94644.56;10614789;27;20471;-78
2021/07/14 09:00:24;;;;;;;9.30;4.47;;;;;;;42.58;26.34;94647.88;10614494;27;20023;-76
2021/07/14 09:05:24;;;;;;;9.38;4.55;;;;;;;42.42;26.77;94646.28;10615699;27;20054;-76
2021/07/14 09:10:24;;;;;;;6.33;4.63;;;;;;;42.68;25.33;94651.41;10615372;27;20031;-75
2021/07/14 09:15:28;;;;;;;7.03;4.17;;;;;;;43.01;24.22;94641.91;10615417;27;20042;-78
2021/07/14 09:20:30;;;;;;;7.35;4.35;;;;;;;43.16;24.00;94633.44;10614078;27;20375;-77
2021/07/14 09:26:02;;;;;;;6.65;3.92;;;;;;;43.68;23.93;94638.56;10630060;27;20418;-77
2021/07/14 09:31:06;;;;;;;6.22;3.70;;;;;;;44.13;23.79;94627.03;10611797;27;20047;-78
2021/07/14 09:36:06;;;;;;;4.22;3.28;;;;;;;44.58;22.68;94629.59;10613613;27;20038;-77
2021/07/14 09:41:12;;;;;;;4.27;3.60;;;;;;;44.32;22.69;94622.66;10610744;27;20023;-83
2021/07/14 09:46:14;;;;;;;5.32;3.72;;;;;;;44.77;21.59;94627.19;10611164;28;20506;-82
2021/07/14 09:51:20;;;;;;;6.35;3.80;;;;;;;44.98;21.64;94616.50;10609557;27;20031;-82
2021/07/14 09:56:25;;;;;;;5.03;3.38;;;;;;;43.25;22.62;94630.50;10611868;27;20034;-82
2021/07/14 10:01:34;;;;;;;4.90;3.25;;;;;;;44.39;21.00;94627.06;10611908;27;20019;-82
2021/07/14 10:06:35;;;;;;;4.97;3.10;;;;;;;44.65;21.40;94629.91;10611345;28;20035;-82
2021/07/14 10:11:36;;;;;;;4.33;3.00;;;;;;;44.30;21.11;94615.91;10611593;28;20030;-82
2021/07/14 10:16:38;;;;;;;5.80;3.60;;;;;;;45.28;20.63;94613.41;10612069;28;20027;-82
2021/07/14 10:21:39;;;;;;;6.32;3.58;;;;;;;46.12;19.62;94604.53;10609593;28;20917;-82
2021/07/14 10:26:42;;;;;;;5.18;3.00;;;;;;;46.32;18.75;94595.06;10609653;27;20078;-82
2021/07/14 10:31:47;;;;;;;3.05;2.75;;;;;;;46.47;18.42;94600.53;10615825;27;20501;-82
2021/07/14 10:36:52;;;;;;;7.80;3.63;;;;;;;44.69;19.95;94587.94;10633081;27;20055;-83
2021/07/14 10:41:53;;;;;;;4.45;3.20;;;;;;;44.68;21.44;94592.06;10618436;27;20350;-82
2021/07/14 10:46:55;;;;;;;7.75;3.13;;;;;;;47.11;18.53;94582.19;10617946;27;20033;-83
2021/07/14 10:51:56;;;;;;;4.95;3.70;;;;;;;47.19;18.61;94578.28;10618552;27;20119;-83
2021/07/14 10:56:59;;;;;;;6.97;2.80;;;;;;;47.12;17.70;94584.50;10618281;27;20031;-80
2021/07/14 11:02:00;;;;;;;3.60;2.67;;;;;;;47.39;17.02;94574.41;10599180;27;20019;-83
2021/07/14 11:07:06;;;;;;;5.90;2.88;;;;;;;45.56;18.04;94573.84;10618697;27;20019;-83
2021/07/14 11:12:11;;;;;;;3.67;3.35;;;;;;;41.67;22.19;94567.06;10619231;27;20091;-83
2021/07/14 11:17:12;;;;;;;6.00;4.18;;;;;;;39.49;22.84;94565.50;10619442;27;20026;-82
2021/07/14 11:22:14;;;;;;;5.93;3.90;;;;;;;38.00;23.48;94563.28;10619320;27;20031;-82
2021/07/14 11:27:26;;;;;;;18.20;3.97;;;;;;;36.96;24.41;94557.19;10619244;27;20027;-82
2021/07/14 11:32:39;;;;;;;10.57;4.40;;;;;;;36.59;25.33;94567.97;10619481;27;20110;-82
2021/07/14 11:38:02;;;;;;;6.78;4.50;;;;;;;35.49;26.15;94565.06;10619224;27;20050;-82
2021/07/14 11:43:24;;;;;;;12.15;5.05;;;;;;;35.12;27.12;94567.16;10600053;27;20026;-82
2021/07/14 11:48:30;;;;;;;7.97;5.05;;;;;;;34.94;28.13;94562.81;10601209;27;20023;-83
2021/07/14 11:53:39;;;;;;;8.57;4.53;;;;;;;34.72;27.82;94557.72;10618644;27;20560;-82
2021/07/14 11:58:45;;;;;;;15.77;5.70;;;;;;;34.85;28.19;94546.66;10618929;27;20023;-82
2021/07/14 12:04:01;;;;;;;;;;;;;;;35.02;28.69;94552.25;10617523;27;20533;-82
2021/07/14 12:09:25;;;;;;;7.53;5.10;;;;;;;35.08;28.30;94550.50;10619065;27;19950;-82
2021/07/14 12:14:30;;;;;;;14.27;4.70;;;;;;;34.76;28.34;94546.44;10617488;27;20832;-82
2021/07/14 12:19:33;;;;;;;8.18;4.90;;;;;;;34.44;28.72;94536.03;10619216;27;20092;-82
2021/07/14 12:24:42;;;;;;;8.07;4.55;;;;;;;34.11;28.19;94533.19;10618471;27;20055;-82
2021/07/14 12:29:48;;;;;;;9.65;4.68;;;;;;;34.11;28.22;94533.19;10599125;27;20028;-82
2021/07/14 12:34:49;;;;;;;5.77;4.73;;;;;;;33.50;29.60;94541.50;10618657;27;20482;-83
2021/07/14 12:39:49;;;;;;;5.45;4.68;;;;;;;33.64;29.35;94525.75;10618770;27;20030;-82
2021/07/14 12:44:50;;;;;;;5.22;4.40;;;;;;;33.72;29.63;94530.72;10618468;27;20069;-82
2021/07/14 12:49:52;;;;;;;5.60;4.75;;;;;;;33.82;29.16;94517.03;10618517;27;20035;-82
2021/07/14 12:54:55;;;;;;;6.93;5.50;;;;;;;33.87;29.51;94514.53;10618931;27;20114;-83
2021/07/14 13:00:05;;;;;;;7.63;5.13;;;;;;;34.14;29.49;94505.19;10618861;27;20427;-82
2021/07/14 13:05:11;;;;;;;7.28;5.10;;;;;;;33.82;28.93;94508.69;10634562;27;20053;-83
2021/07/14 13:10:14;;;;;;;7.85;4.75;;;;;;;33.88;28.38;94501.38;10618833;27;20034;-83
2021/07/14 13:15:16;;;;;;;5.50;4.90;;;;;;;33.63;29.06;94504.66;10618252;27;20033;-83
2021/07/14 13:20:18;;;;;;;8.70;4.72;;;;;;;33.55;29.46;94504.03;10617922;27;20075;-82
2021/07/14 13:25:19;;;;;;;7.47;4.80;;;;;;;33.31;29.51;94508.84;10618405;27;20082;-82
2021/07/14 13:30:27;;;;;;;7.38;5.10;;;;;;;33.03;29.82;94503.34;10618205;27;20125;-82
2021/07/14 13:35:42;;;;;;;9.93;5.30;;;;;;;33.11;29.71;94498.44;10618031;27;20031;-83
2021/07/14 13:40:43;;;;;;;9.48;5.00;;;;;;;33.04;29.23;94487.44;10617817;27;20110;-82
2021/07/14 13:45:43;;;;;;;7.63;4.67;;;;;;;32.95;29.45;94485.22;10618352;27;20130;-83
2021/07/14 13:50:52;;;;;;;8.68;5.07;;;;;;;32.88;29.88;94496.47;10616416;27;20031;-82
2021/07/14 13:56:05;;;;;;;6.53;4.95;;;;;;;33.05;29.64;94487.00;10616980;28;20019;-83
2021/07/14 14:01:06;;;;;;;8.75;5.05;;;;;;;33.05;29.05;94483.44;10616552;28;20027;-83
2021/07/14 14:06:07;;;;;;;10.10;4.75;;;;;;;32.93;29.53;94478.50;10619121;27;20030;-83
2021/07/14 14:11:11;;;;;;;6.47;4.53;;;;;;;32.94;29.36;94477.28;10616163;27;20027;-82
2021/07/14 14:16:11;;;;;;;8.68;4.65;;;;;;;32.92;29.31;94468.56;10620763;27;20031;-82
2021/07/14 14:21:12;;;;;;;8.23;4.43;;;;;;;32.82;29.56;94470.31;10622811;27;20503;-82
2021/07/14 14:26:12;;;;;;;6.37;5.07;;;;;;;32.78;29.34;94461.25;10622822;27;20071;-82
2021/07/14 14:31:13;;;;;;;13.37;5.13;;;;;;;32.78;29.39;94464.84;10603265;27;20032;-82
2021/07/14 14:36:13;;;;;;;7.45;4.65;;;;;;;32.68;29.79;94465.75;10621495;27;20276;-82
2021/07/14 14:41:14;;;;;;;6.87;4.97;;;;;;;32.61;29.68;94466.69;10621562;27;20023;-82
2021/07/14 14:46:14;;;;;;;6.00;4.57;;;;;;;32.59;30.07;94463.53;10621192;27;20462;-82
2021/07/14 14:51:15;;;;;;;10.60;4.80;;;;;;;32.51;29.29;94467.63;10620831;27;20114;-82
2021/07/14 14:56:15;;;;;;;10.53;4.30;;;;;;;32.50;29.34;94461.28;10602460;27;20031;-82
2021/07/14 15:01:16;;;;;;;9.15;4.90;;;;;;;32.57;29.83;94462.38;10620584;27;20051;-82
2021/07/14 15:06:17;;;;;;;6.95;4.80;;;;;;;32.52;30.02;94460.88;10619988;27;20462;-82
2021/07/14 15:11:17;;;;;;;8.27;4.78;;;;;;;32.35;29.56;94457.16;10619949;27;20031;-82
2021/07/14 15:16:18;;;;;;;10.83;4.93;;;;;;;32.35;29.96;94454.38;10619001;27;20035;-82
2021/07/14 15:21:18;;;;;;;7.07;4.37;;;;;;;32.41;29.12;94447.13;10619741;27;20272;-82
2021/07/14 15:31:38;;;;;;;6.75;4.45;;;;;;;32.32;29.06;94444.88;10620614;27;20035;-82
2021/07/14 15:36:40;;;;;;;7.30;4.80;;;;;;;32.19;29.19;94450.25;10619113;27;20470;-82
2021/07/14 15:41:41;;;;;;;8.57;4.82;;;;;;;32.23;29.40;94438.28;10619034;27;20568;-81
2021/07/14 15:46:41;;;;;;;8.43;4.78;;;;;;;32.14;29.83;94445.16;10617935;27;20031;-82
2021/07/14 15:51:49;;;;;;;8.90;5.43;;;;;;;32.18;30.06;94442.34;10618778;27;20027;-83
2021/07/14 15:56:49;;;;;;;7.88;5.40;;;;;;;32.09;30.27;94451.16;10604201;27;20027;-82
2021/07/14 16:01:52;;;;;;;13.33;8.50;;;;;;;32.12;30.41;94450.31;10621793;27;20027;-83
2021/07/14 16:06:52;;;;;;;8.57;5.68;;;;;;;31.99;30.18;94449.34;10620958;27;20147;-82
2021/07/14 16:11:53;;;;;;;252.80;82.03;;;;;;;31.98;31.30;94447.75;10620245;27;20037;-82
2021/07/14 16:16:53;;;;;;;6.97;5.07;;;;;;;32.00;31.43;94454.47;10620441;27;20027;-83
2021/07/14 16:21:53;;;;;;;12.93;7.00;;;;;;;31.96;32.28;94439.84;10619945;27;20042;-82
2021/07/14 16:26:54;;;;;;;8.20;5.83;;;;;;;31.92;32.06;94449.44;10618802;27;20141;-82
2021/07/14 16:31:55;;;;;;;9.43;6.30;;;;;;;31.70;34.90;94452.50;10618869;27;20387;-83
2021/07/14 16:36:55;;;;;;;12.63;6.67;;;;;;;31.55;38.51;94453.88;10589699;27;20110;-76
2021/07/14 16:41:57;;;;;;;13.23;7.35;;;;;;;31.40;41.13;94447.69;10583047;27;20586;-75
2021/07/14 16:46:57;;;;;;;12.53;7.43;;;;;;;31.32;42.30;94458.88;10583223;27;20031;-75
2021/07/14 16:51:57;;;;;;;14.27;7.93;;;;;;;31.22;43.40;94456.22;10568560;27;20473;-77
2021/07/14 16:56:58;;;;;;;9.03;7.03;;;;;;;31.03;44.76;94455.66;10526641;27;20032;-76
2021/07/14 17:01:58;;;;;;;9.10;6.80;;;;;;;30.75;46.63;94451.16;10575966;27;20061;-77
2021/07/14 17:06:58;;;;;;;12.63;7.30;;;;;;;30.57;48.24;94454.09;10581684;27;20372;-76
2021/07/14 17:12:00;;;;;;;12.25;6.95;;;;;;;30.44;49.96;94451.81;10572577;27;20036;-76
2021/07/14 17:17:00;;;;;;;16.30;7.60;;;;;;;30.20;59.80;94458.28;10588172;27;20133;-76
2021/07/14 17:22:01;;;;;;;12.20;7.07;;;;;;;28.04;70.80;94460.44;10613338;27;20400;-77
2021/07/14 17:27:01;;;;;;;14.27;7.35;;;;;;;27.68;76.29;94471.38;10564333;27;20837;-77
2021/07/14 17:32:02;;;;;;;13.52;7.63;;;;;;;28.00;73.20;94467.91;10568303;27;20057;-77
2021/07/14 17:37:03;;;;;;;9.50;7.90;;;;;;;28.24;70.78;94463.59;10572150;28;20027;-77
2021/07/14 17:42:04;;;;;;;15.13;8.00;;;;;;;28.45;69.36;94457.31;10584304;27;20024;-78
2021/07/14 17:47:05;;;;;;;12.73;7.70;;;;;;;28.46;66.38;94469.91;10571037;28;20140;-77
2021/07/14 17:52:05;;;;;;;8.70;6.82;;;;;;;28.61;60.69;94467.16;10575968;28;20047;-77
2021/07/14 17:57:09;;;;;;;13.47;7.60;;;;;;;28.75;56.08;94478.22;10526494;28;20031;-78
2021/07/14 18:02:10;;;;;;;10.90;7.00;;;;;;;28.75;52.87;94483.75;10594137;28;20091;-78
2021/07/14 18:07:11;;;;;;;7.50;6.68;;;;;;;28.67;52.67;94475.88;10568522;28;20080;-78
2021/07/14 18:12:14;;;;;;;12.38;6.63;;;;;;;28.60;53.20;94476.63;10592632;27;20136;-78
2021/07/14 18:17:14;;;;;;;7.03;6.25;;;;;;;28.46;54.14;94488.50;10598189;28;20043;-77
2021/07/14 18:22:15;;;;;;;11.00;6.97;;;;;;;28.27;54.98;94492.41;10608922;28;20039;-77
2021/07/14 18:27:15;;;;;;;10.20;7.10;;;;;;;28.05;53.98;94497.13;10559046;28;20277;-78
2021/07/14 18:32:15;;;;;;;10.03;6.03;;;;;;;28.00;53.10;94503.84;10584925;28;20110;-78
2021/07/14 18:37:16;;;;;;;13.47;6.80;;;;;;;27.92;55.51;94504.97;10609430;28;20119;-78
2021/07/14 18:42:16;;;;;;;8.67;6.60;;;;;;;27.84;55.04;94515.22;10611203;28;20034;-77
2021/07/14 18:47:18;;;;;;;12.45;6.38;;;;;;;27.83;54.22;94523.91;10610298;27;20023;-78
2021/07/14 18:52:19;;;;;;;8.75;7.47;;;;;;;27.57;54.03;94517.47;10600601;27;20051;-77
2021/07/14 18:57:19;;;;;;;9.77;7.00;;;;;;;27.60;53.11;94541.53;10609576;27;20390;-78
2021/07/14 19:02:21;;;;;;;11.27;7.07;;;;;;;27.42;55.83;94547.78;10617956;27;20030;-78
2021/07/14 19:07:21;;;;;;;11.10;7.32;;;;;;;27.50;54.44;94548.59;10614480;27;20024;-77
2021/07/14 19:12:22;;;;;;;10.30;7.83;;;;;;;27.39;56.12;94548.56;10580195;27;20042;-77
2021/07/14 19:17:22;;;;;;;15.70;8.90;;;;;;;27.43;55.42;94557.66;10559113;28;20023;-79
2021/07/14 19:22:23;;;;;;;11.60;7.50;;;;;;;27.34;56.41;94559.16;10586737;27;20300;-75
2021/07/14 19:27:23;;;;;;;13.63;7.83;;;;;;;27.37;56.82;94567.47;10576759;27;20023;-78
2021/07/14 19:32:23;;;;;;;12.40;7.63;;;;;;;27.33;59.12;94576.88;10588888;27;20376;-76
2021/07/14 19:37:24;;;;;;;11.90;7.50;;;;;;;27.28;60.42;94570.53;10575013;27;20027;-76
2021/07/14 19:42:26;;;;;;;12.25;7.63;;;;;;;27.19;62.12;94572.06;10564895;27;20074;-76
2021/07/14 19:47:26;;;;;;;11.30;7.95;;;;;;;27.15;64.07;94566.50;10587737;27;20030;-77
2021/07/14 19:52:27;;;;;;;13.57;8.05;;;;;;;27.07;65.30;94560.16;10629828;27;20497;-78
2021/07/14 19:57:27;;;;;;;11.37;7.23;;;;;;;26.88;67.51;94560.41;10605971;27;20031;-78
2021/07/14 20:02:28;;;;;;;12.50;8.37;;;;;;;26.80;69.44;94569.81;10573404;27;20359;-77
2021/07/14 20:07:28;;;;;;;13.00;8.02;;;;;;;26.76;70.83;94573.34;10615241;27;20383;-78
2021/07/14 20:12:29;;;;;;;14.85;7.65;;;;;;;26.63;73.92;94574.75;10604587;27;20754;-78
2021/07/14 20:17:29;;;;;;;15.03;8.20;;;;;;;26.53;75.52;94569.97;10529572;28;20081;-78
2021/07/14 20:22:30;;;;;;;12.13;8.93;;;;;;;26.44;76.84;94567.50;10528995;28;20059;-77
2021/07/14 20:27:30;;;;;;;15.33;8.50;;;;;;;26.33;79.06;94574.88;10574468;27;20035;-78
2021/07/14 20:32:31;;;;;;;13.33;8.17;;;;;;;26.30;80.71;94578.38;10612668;27;20084;-77
2021/07/14 20:37:31;;;;;;;12.43;7.80;;;;;;;26.25;81.14;94576.78;10574323;27;20103;-77
2021/07/14 20:42:32;;;;;;;13.40;8.67;;;;;;;26.17;82.73;94580.63;10570240;28;20051;-77
2021/07/14 20:47:33;;;;;;;14.48;8.52;;;;;;;26.05;84.53;94584.41;10570131;28;20497;-77
2021/07/14 20:52:33;;;;;;;11.88;9.05;;;;;;;25.96;86.33;94584.69;10592547;27;20495;-77
2021/07/14 20:57:34;;;;;;;14.35;9.00;;;;;;;25.88;87.76;94586.56;10611558;27;20035;-77
2021/07/14 21:02:34;;;;;;;12.88;8.55;;;;;;;25.88;88.15;94591.28;10611680;27;20492;-77
2021/07/14 21:07:35;;;;;;;17.27;9.52;;;;;;;25.81;89.37;94593.94;10612041;27;20035;-77
2021/07/14 21:12:36;;;;;;;11.93;8.15;;;;;;;25.70;91.06;94591.06;10612762;27;20060;-78
2021/07/14 21:17:37;;;;;;;11.43;7.03;;;;;;;25.67;91.65;94589.06;10611791;27;20069;-78
2021/07/14 21:22:37;;;;;;;13.88;7.97;;;;;;;25.58;93.26;94584.63;10594904;27;20050;-77
2021/07/14 21:27:38;;;;;;;11.05;7.70;;;;;;;25.51;93.90;94583.72;10615751;27;20722;-77
2021/07/14 21:32:39;;;;;;;11.20;7.65;;;;;;;25.38;95.29;94575.72;10611210;27;20027;-76
2021/07/14 21:37:40;;;;;;;15.00;7.60;;;;;;;25.38;95.60;94586.72;10569501;27;20493;-77
2021/07/14 21:42:41;;;;;;;12.15;7.80;;;;;;;25.32;96.84;94585.44;10568711;28;20039;-76
2021/07/14 21:47:42;;;;;;;10.15;7.72;;;;;;;25.27;97.35;94582.19;10568699;28;20036;-77
2021/07/14 21:52:45;;;;;;;10.63;7.93;;;;;;;25.18;98.57;94585.22;10543425;28;20527;-77
2021/07/14 21:57:45;;;;;;;13.45;7.93;;;;;;;25.15;99.34;94603.25;10569130;28;20031;-77
2021/07/14 22:02:46;;;;;;;14.40;7.80;;;;;;;25.16;99.65;94606.78;10567489;28;20081;-77
2021/07/14 22:07:48;;;;;;;15.40;7.60;;;;;;;25.15;100.00;94599.72;10570928;28;20035;-79
2021/07/14 22:12:49;;;;;;;13.05;9.18;;;;;;;25.14;100.00;94612.66;10596378;28;20479;-78
2021/07/14 22:17:52;;;;;;;15.02;8.85;;;;;;;25.04;100.00;94611.34;10571697;28;20093;-78
2021/07/14 22:23:03;;;;;;;10.50;7.78;;;;;;;25.06;100.00;94609.03;10553615;28;20052;-78
2021/07/14 22:28:07;;;;;;;19.70;8.38;;;;;;;24.97;100.00;94615.94;10579209;28;20045;-78
2021/07/14 22:33:08;;;;;;;15.20;8.38;;;;;;;24.94;100.00;94619.44;10580891;28;20106;-78
2021/07/14 22:38:14;;;;;;;15.90;8.70;;;;;;;24.85;100.00;94619.66;10581482;28;20031;-78
2021/07/14 22:43:17;;;;;;;11.13;8.40;;;;;;;24.81;100.00;94622.38;10582068;28;20102;-78
2021/07/14 22:48:19;;;;;;;12.90;9.05;;;;;;;24.76;100.00;94610.91;10581051;28;20063;-78
2021/07/14 22:53:19;;;;;;;16.13;8.85;;;;;;;24.76;100.00;94603.44;10580138;28;20451;-78
2021/07/14 22:58:20;;;;;;;16.33;8.43;;;;;;;24.68;100.00;94604.47;10561829;28;20123;-78
2021/07/14 23:03:20;;;;;;;16.67;8.30;;;;;;;24.63;100.00;94596.53;10579633;28;20273;-78
2021/07/14 23:08:20;;;;;;;15.45;9.05;;;;;;;24.49;100.00;94599.78;10579229;28;20027;-78
2021/07/14 23:13:21;;;;;;;12.27;9.43;;;;;;;24.45;100.00;94604.44;10577989;28;20490;-78
2021/07/14 23:18:22;;;;;;;17.30;8.88;;;;;;;24.33;100.00;94608.16;10560633;28;20265;-78
2021/07/14 23:23:22;;;;;;;14.20;9.63;;;;;;;24.27;100.00;94609.63;10577526;28;20058;-78